Time,TemperatureF,DewpointF,PressureIn,WindDirection,WindDirectionDegrees,WindSpeedMPH,WindSpeedGustMPH,Humidity,HourlyPrecipIn,Conditions,Clouds,dailyrainin,SoftwareType,DateUTC
2013-05-01 00:02:00,49.0,48.0,29.93,NNE,25,0.0,0.0,95,0.04,,,0.75,,2013-05-01 05:02:00,
2013-05-01 00:11:00,49.0,48.0,29.93,NNE,25,0.0,0.0,95,0.04,,,0.75,,2013-05-01 05:11:00,
2013-05-01 00:21:00,49.0,48.0,29.93,NNE,25,0.0,0.0,95,0.04,,,0.75,,2013-05-01 05:21:00,
2013-05-01 00:32:00,49.0,48.0,29.93,NNE,25,0.0,0.0,96,0.04,,,0.75,,2013-05-01 05:32:00,
2013-05-01 00:41:00,49.0,48.0,29.93,North,357,0.0,0.0,96,0.04,,,0.75,,2013-05-01 05:41:00,
2013-05-01 00:52:00,49.0,48.0,29.93,North,357,0.0,0.0,96,0.04,,,0.75,,2013-05-01 05:52:00,
2013-05-01 01:02:00,49.0,48.0,29.93,NW,305,0.0,0.0,96,0.04,,,0.75,,2013-05-01 06:02:00,
2013-05-01 01:11:00,49.0,48.0,29.93,NW,305,0.0,0.0,96,0.04,,,0.75,,2013-05-01 06:11:00,
2013-05-01 01:22:00,50.0,49.0,29.96,WNW,300,0.0,5.0,96,0.00,,,0.75,,2013-05-01 06:22:00,
2013-05-01 01:32:00,50.0,49.0,29.96,ENE,77,5.0,5.0,96,0.00,,,0.75,,2013-05-01 06:32:00,
2013-05-01 01:42:00,50.0,49.0,29.96,ENE,77,5.0,5.0,96,0.00,,,0.75,,2013-05-01 06:42:00,
2013-05-01 01:51:00,49.0,48.0,29.99,North,0,8.0,13.0,96,0.00,,,0.75,,2013-05-01 06:51:00,
2013-05-01 02:01:00,49.0,48.0,29.93,North,353,16.0,16.0,95,0.00,,,0.75,,2013-05-01 07:01:00,
2013-05-01 02:11:00,49.0,48.0,29.93,North,353,16.0,16.0,95,0.00,,,0.75,,2013-05-01 07:11:00,
2013-05-01 02:21:00,49.0,44.0,29.96,North,357,14.0,14.0,84,0.00,,,0.75,,2013-05-01 07:21:00,
2013-05-01 02:32:00,50.0,40.0,29.99,NNE,14,6.0,12.0,69,0.00,,,0.75,,2013-05-01 07:32:00,
2013-05-01 02:41:00,50.0,40.0,29.99,NNE,14,6.0,12.0,69,0.00,,,0.75,,2013-05-01 07:41:00,
2013-05-01 02:52:00,50.0,40.0,30.02,NW,323,8.0,14.0,69,0.00,,,0.75,,2013-05-01 07:52:00,
2013-05-01 03:02:00,50.0,40.0,30.02,NW,323,8.0,14.0,69,0.00,,,0.75,,2013-05-01 08:02:00,
2013-05-01 03:11:00,50.0,40.0,30.02,NW,323,8.0,14.0,69,0.00,,,0.75,,2013-05-01 08:11:00,
2013-05-01 03:21:00,49.0,37.0,30.02,North,353,6.0,8.0,64,0.00,,,0.75,,2013-05-01 08:21:00,
2013-05-01 03:31:00,49.0,38.0,30.02,North,353,9.0,9.0,65,0.00,,,0.75,,2013-05-01 08:31:00,
2013-05-01 03:42:00,49.0,38.0,30.02,North,353,9.0,9.0,65,0.00,,,0.75,,2013-05-01 08:42:00,
2013-05-01 03:53:00,50.0,38.0,30.02,North,9,10.0,13.0,64,0.00,,,0.75,,2013-05-01 08:53:00,
2013-05-01 04:01:00,50.0,38.0,30.02,North,9,10.0,13.0,64,0.00,,,0.75,,2013-05-01 09:01:00,
2013-05-01 04:11:00,50.0,38.0,30.02,North,9,10.0,13.0,64,0.00,,,0.75,,2013-05-01 09:11:00,
2013-05-01 04:21:00,49.0,39.0,30.05,NNW,338,6.0,8.0,68,0.00,,,0.75,,2013-05-01 09:21:00,
2013-05-01 04:33:00,49.0,40.0,30.05,NNW,340,6.0,10.0,70,0.00,,,0.75,,2013-05-01 09:33:00,
2013-05-01 04:42:00,49.0,40.0,30.05,NNW,340,6.0,10.0,70,0.00,,,0.75,,2013-05-01 09:42:00,
2013-05-01 04:52:00,48.0,36.0,30.05,NNW,336,9.0,16.0,62,0.00,,,0.75,,2013-05-01 09:52:00,
2013-05-01 05:02:00,48.0,37.0,30.05,NNW,337,8.0,10.0,66,0.00,,,0.75,,2013-05-01 10:02:00,
2013-05-01 05:12:00,48.0,37.0,30.05,NNW,337,8.0,10.0,66,0.00,,,0.75,,2013-05-01 10:12:00,
2013-05-01 05:22:00,48.0,35.0,30.05,North,353,10.0,13.0,60,0.00,,,0.75,,2013-05-01 10:22:00,
2013-05-01 05:33:00,48.0,35.0,30.05,North,353,10.0,13.0,60,0.00,,,0.75,,2013-05-01 10:33:00,
2013-05-01 05:42:00,48.0,35.0,30.05,North,353,10.0,13.0,60,0.00,,,0.75,,2013-05-01 10:42:00,
2013-05-01 05:53:00,47.0,35.0,30.08,NNE,25,9.0,9.0,64,0.00,,,0.75,,2013-05-01 10:53:00,
2013-05-01 06:02:00,47.0,35.0,30.08,North,1,10.0,13.0,64,0.00,,,0.75,,2013-05-01 11:02:00,
2013-05-01 06:11:00,47.0,35.0,30.08,North,1,10.0,13.0,64,0.00,,,0.75,,2013-05-01 11:11:00,
2013-05-01 06:22:00,47.0,36.0,30.08,North,357,12.0,12.0,65,0.00,,,0.75,,2013-05-01 11:22:00,
2013-05-01 06:32:00,47.0,35.0,30.11,NNE,21,9.0,11.0,64,0.00,,,0.75,,2013-05-01 11:32:00,
2013-05-01 06:42:00,47.0,35.0,30.11,NNE,21,9.0,11.0,64,0.00,,,0.75,,2013-05-01 11:42:00,
2013-05-01 06:51:00,47.0,36.0,30.11,NNW,342,9.0,13.0,65,0.00,,,0.75,,2013-05-01 11:51:00,
2013-05-01 07:01:00,47.0,36.0,30.14,NNW,344,8.0,12.0,66,0.00,,,0.75,,2013-05-01 12:01:00,
2013-05-01 07:11:00,47.0,35.0,30.14,NNW,341,8.0,16.0,64,0.00,,,0.75,,2013-05-01 12:11:00,
2013-05-01 07:21:00,47.0,35.0,30.14,NNW,341,8.0,16.0,64,0.00,,,0.75,,2013-05-01 12:21:00,
2013-05-01 07:31:00,46.0,36.0,30.16,NNW,345,9.0,9.0,68,0.00,,,0.75,,2013-05-01 12:31:00,
2013-05-01 07:41:00,46.0,36.0,30.16,NNW,345,9.0,9.0,68,0.00,,,0.75,,2013-05-01 12:41:00,
2013-05-01 07:51:00,46.0,36.0,30.16,NNW,346,8.0,17.0,68,0.00,,,0.75,,2013-05-01 12:51:00,
2013-05-01 08:01:00,46.0,36.0,30.16,NNE,17,10.0,14.0,68,0.00,,,0.75,,2013-05-01 13:01:00,
2013-05-01 08:11:00,46.0,36.0,30.16,NNE,17,10.0,14.0,68,0.00,,,0.75,,2013-05-01 13:11:00,
2013-05-01 08:21:00,46.0,37.0,30.16,North,0,13.0,13.0,70,0.00,,,0.75,,2013-05-01 13:21:00,
2013-05-01 08:32:00,46.0,37.0,30.16,North,0,9.0,12.0,71,0.00,,,0.75,,2013-05-01 13:32:00,
2013-05-01 08:42:00,46.0,37.0,30.16,North,0,9.0,12.0,71,0.00,,,0.75,,2013-05-01 13:42:00,
2013-05-01 08:52:00,45.0,36.0,30.16,North,353,10.0,15.0,70,0.00,,,0.75,,2013-05-01 13:52:00,
2013-05-01 09:02:00,45.0,36.0,30.19,NNE,16,13.0,14.0,70,0.00,,,0.75,,2013-05-01 14:02:00,
2013-05-01 09:11:00,45.0,36.0,30.19,NNE,16,13.0,14.0,70,0.00,,,0.75,,2013-05-01 14:11:00,
2013-05-01 09:21:00,44.0,36.0,30.19,NNW,336,16.0,20.0,72,0.00,,,0.75,,2013-05-01 14:21:00,
2013-05-01 09:32:00,45.0,35.0,30.19,NNW,343,17.0,19.0,69,0.00,,,0.75,,2013-05-01 14:32:00,
2013-05-01 09:42:00,45.0,35.0,30.19,NNW,343,17.0,19.0,69,0.00,,,0.75,,2013-05-01 14:42:00,
2013-05-01 09:52:00,45.0,35.0,30.19,NNW,343,17.0,19.0,69,0.00,,,0.75,,2013-05-01 14:52:00,
2013-05-01 10:01:00,45.0,35.0,30.19,NNW,343,17.0,19.0,69,0.00,,,0.75,,2013-05-01 15:01:00,
2013-05-01 10:11:00,45.0,35.0,30.19,NNW,343,17.0,19.0,69,0.00,,,0.75,,2013-05-01 15:11:00,
2013-05-01 10:21:00,44.0,34.0,30.19,NNE,17,13.0,14.0,67,0.00,,,0.75,,2013-05-01 15:21:00,
2013-05-01 10:33:00,44.0,33.0,30.22,North,7,16.0,21.0,66,0.00,,,0.75,,2013-05-01 15:33:00,
2013-05-01 10:43:00,44.0,33.0,30.22,North,7,16.0,21.0,66,0.00,,,0.75,,2013-05-01 15:43:00,
2013-05-01 10:53:00,44.0,34.0,30.19,North,2,13.0,16.0,67,0.00,,,0.75,,2013-05-01 15:53:00,
2013-05-01 11:03:00,44.0,33.0,30.19,North,357,8.0,14.0,65,0.00,,,0.75,,2013-05-01 16:03:00,
2013-05-01 11:12:00,44.0,33.0,30.19,North,357,8.0,14.0,65,0.00,,,0.75,,2013-05-01 16:12:00,
2013-05-01 11:22:00,43.0,32.0,30.19,North,357,10.0,13.0,65,0.00,,,0.75,,2013-05-01 16:22:00,
2013-05-01 11:32:00,44.0,33.0,30.22,NNW,332,17.0,17.0,65,0.00,,,0.75,,2013-05-01 16:32:00,
2013-05-01 11:42:00,44.0,33.0,30.22,NNW,332,17.0,17.0,65,0.00,,,0.75,,2013-05-01 16:42:00,
2013-05-01 11:53:00,44.0,33.0,30.22,NNW,332,17.0,17.0,65,0.00,,,0.75,,2013-05-01 16:53:00,
2013-05-01 12:02:00,44.0,33.0,30.22,North,0,12.0,14.0,64,0.00,,,0.75,,2013-05-01 17:02:00,
2013-05-01 12:12:00,44.0,33.0,30.22,North,0,12.0,14.0,64,0.00,,,0.75,,2013-05-01 17:12:00,
2013-05-01 12:22:00,46.0,34.0,30.22,North,1,13.0,16.0,62,0.00,,,0.75,,2013-05-01 17:22:00,
2013-05-01 12:32:00,45.0,33.0,30.25,NNE,16,11.0,21.0,63,0.00,,,0.75,,2013-05-01 17:32:00,
2013-05-01 12:42:00,45.0,33.0,30.25,NNE,16,11.0,21.0,63,0.00,,,0.75,,2013-05-01 17:42:00,
2013-05-01 12:52:00,45.0,33.0,30.25,NNE,16,11.0,21.0,63,0.00,,,0.75,,2013-05-01 17:52:00,
2013-05-01 13:01:00,46.0,33.0,30.25,NNW,337,16.0,17.0,61,0.00,,,0.75,,2013-05-01 18:01:00,
2013-05-01 13:11:00,46.0,33.0,30.25,NNW,337,16.0,17.0,61,0.00,,,0.75,,2013-05-01 18:11:00,
2013-05-01 13:22:00,47.0,34.0,30.22,NW,324,15.0,15.0,61,0.00,,,0.75,,2013-05-01 18:22:00,
2013-05-01 13:32:00,46.0,33.0,30.22,NNW,330,14.0,19.0,60,0.00,,,0.75,,2013-05-01 18:32:00,
2013-05-01 13:41:00,46.0,33.0,30.22,NNW,330,14.0,19.0,60,0.00,,,0.75,,2013-05-01 18:41:00,
2013-05-01 13:52:00,45.0,32.0,30.22,NNE,20,19.0,19.0,59,0.00,,,0.75,,2013-05-01 18:52:00,
2013-05-01 14:02:00,45.0,32.0,30.25,North,1,13.0,13.0,61,0.00,,,0.75,,2013-05-01 19:02:00,
2013-05-01 14:11:00,45.0,32.0,30.25,North,1,13.0,13.0,61,0.00,,,0.75,,2013-05-01 19:11:00,
2013-05-01 14:22:00,45.0,32.0,30.25,North,357,14.0,17.0,61,0.00,,,0.75,,2013-05-01 19:22:00,
2013-05-01 14:32:00,45.0,32.0,30.25,NNW,346,16.0,20.0,60,0.00,,,0.75,,2013-05-01 19:32:00,
2013-05-01 14:42:00,45.0,32.0,30.25,NNW,346,16.0,20.0,60,0.00,,,0.75,,2013-05-01 19:42:00,
2013-05-01 14:52:00,43.0,32.0,30.25,North,353,9.0,21.0,66,0.00,,,0.75,,2013-05-01 19:52:00,
2013-05-01 15:01:00,42.0,32.0,30.28,NW,316,14.0,16.0,68,0.00,,,0.75,,2013-05-01 20:01:00,
2013-05-01 15:11:00,42.0,32.0,30.28,NW,316,14.0,16.0,68,0.00,,,0.75,,2013-05-01 20:11:00,
2013-05-01 15:21:00,41.0,32.0,30.28,North,1,8.0,12.0,71,0.00,,,0.75,,2013-05-01 20:21:00,
2013-05-01 15:32:00,41.0,32.0,30.28,North,1,8.0,12.0,71,0.00,,,0.75,,2013-05-01 20:32:00,
2013-05-01 15:42:00,41.0,32.0,30.28,North,1,8.0,12.0,71,0.00,,,0.75,,2013-05-01 20:42:00,
2013-05-01 15:52:00,40.0,31.0,30.31,North,353,13.0,19.0,70,0.00,,,0.75,,2013-05-01 20:52:00,
2013-05-01 16:01:00,40.0,31.0,30.31,NNW,343,12.0,19.0,70,0.00,,,0.75,,2013-05-01 21:01:00,
2013-05-01 16:11:00,40.0,31.0,30.31,NNW,343,12.0,19.0,70,0.00,,,0.75,,2013-05-01 21:11:00,
2013-05-01 16:22:00,39.0,30.0,30.31,North,10,13.0,19.0,71,0.00,,,0.75,,2013-05-01 21:22:00,
2013-05-01 16:32:00,39.0,30.0,30.31,NNE,25,13.0,19.0,71,0.00,,,0.75,,2013-05-01 21:32:00,
2013-05-01 16:43:00,39.0,30.0,30.28,NNE,19,16.0,17.0,71,0.00,,,0.75,,2013-05-01 21:43:00,
2013-05-01 16:53:00,39.0,30.0,30.28,NNE,19,16.0,17.0,71,0.00,,,0.75,,2013-05-01 21:53:00,
2013-05-01 17:03:00,39.0,30.0,30.31,North,0,6.0,14.0,70,0.00,,,0.75,,2013-05-01 22:03:00,
2013-05-01 17:12:00,39.0,30.0,30.31,North,0,6.0,14.0,70,0.00,,,0.75,,2013-05-01 22:12:00,
2013-05-01 17:23:00,38.0,29.0,30.31,NNW,348,19.0,19.0,71,0.00,,,0.75,,2013-05-01 22:23:00,
2013-05-01 17:33:00,38.0,30.0,30.34,North,8,16.0,19.0,74,0.00,,,0.75,,2013-05-01 22:33:00,
2013-05-01 17:42:00,38.0,30.0,30.34,North,8,16.0,19.0,74,0.00,,,0.75,,2013-05-01 22:42:00,
2013-05-01 17:53:00,38.0,29.0,30.34,NNW,344,14.0,22.0,71,0.00,,,0.75,,2013-05-01 22:53:00,
2013-05-01 18:02:00,38.0,29.0,30.34,NNW,344,14.0,22.0,71,0.00,,,0.75,,2013-05-01 23:02:00,
2013-05-01 18:12:00,38.0,29.0,30.34,NNW,344,14.0,22.0,71,0.00,,,0.75,,2013-05-01 23:12:00,
2013-05-01 18:21:00,37.0,29.0,30.34,NE,41,6.0,16.0,73,0.00,,,0.75,,2013-05-01 23:21:00,
2013-05-01 18:32:00,36.0,29.0,30.34,NNW,336,16.0,16.0,76,0.00,,,0.75,,2013-05-01 23:32:00,
2013-05-01 18:42:00,36.0,29.0,30.34,NNW,336,16.0,16.0,76,0.00,,,0.75,,2013-05-01 23:42:00,
2013-05-01 18:52:00,36.0,30.0,30.34,North,353,19.0,19.0,78,0.00,,,0.75,,2013-05-01 23:52:00,
2013-05-01 19:01:00,35.0,30.0,30.34,NNW,341,14.0,14.0,81,0.00,,,0.75,,2013-05-02 00:01:00,
2013-05-01 19:11:00,35.0,30.0,30.34,NNW,341,14.0,14.0,81,0.00,,,0.75,,2013-05-02 00:11:00,
2013-05-01 19:21:00,35.0,30.0,30.34,North,357,12.0,17.0,82,0.00,,,0.75,,2013-05-02 00:21:00,
2013-05-01 19:32:00,35.0,31.0,30.37,NNW,342,14.0,21.0,86,0.00,,,0.75,,2013-05-02 00:32:00,
2013-05-01 19:41:00,35.0,31.0,30.37,NNW,342,14.0,21.0,86,0.00,,,0.75,,2013-05-02 00:41:00,
2013-05-01 19:52:00,35.0,32.0,30.37,NNE,13,15.0,20.0,89,0.00,,,0.75,,2013-05-02 00:52:00,
2013-05-01 20:01:00,35.0,32.0,30.34,North,349,14.0,23.0,90,0.00,,,0.75,,2013-05-02 01:01:00,
2013-05-01 20:11:00,35.0,32.0,30.34,North,349,14.0,23.0,90,0.00,,,0.75,,2013-05-02 01:11:00,
2013-05-01 20:21:00,35.0,33.0,30.34,North,3,8.0,12.0,92,0.00,,,0.67,,2013-05-02 01:21:00,
2013-05-01 20:32:00,35.0,33.0,30.37,North,357,13.0,14.0,93,0.04,,,0.71,,2013-05-02 01:32:00,
2013-05-01 20:42:00,35.0,33.0,30.37,North,357,13.0,14.0,93,0.04,,,0.71,,2013-05-02 01:42:00,
2013-05-01 20:52:00,35.0,33.0,30.37,North,1,13.0,13.0,93,0.04,,,0.71,,2013-05-02 01:52:00,
2013-05-01 21:01:00,35.0,33.0,30.37,NNE,13,13.0,15.0,94,0.04,,,0.67,,2013-05-02 02:01:00,
2013-05-01 21:11:00,35.0,33.0,30.37,NNE,13,13.0,15.0,94,0.04,,,0.67,,2013-05-02 02:11:00,
2013-05-01 21:21:00,35.0,33.0,30.37,North,357,17.0,27.0,94,0.04,,,0.67,,2013-05-02 02:21:00,
2013-05-01 21:32:00,35.0,34.0,30.37,NNW,335,10.0,20.0,95,0.04,,,0.59,,2013-05-02 02:32:00,
2013-05-01 21:42:00,35.0,34.0,30.37,NNW,335,10.0,20.0,95,0.04,,,0.59,,2013-05-02 02:42:00,
2013-05-01 21:51:00,35.0,34.0,30.37,NNW,335,10.0,20.0,95,0.04,,,0.59,,2013-05-02 02:51:00,
2013-05-01 22:01:00,35.0,34.0,30.37,NNW,334,3.0,13.0,95,0.00,,,0.47,,2013-05-02 03:01:00,
2013-05-01 22:11:00,35.0,34.0,30.37,NNW,334,3.0,13.0,95,0.00,,,0.47,,2013-05-02 03:11:00,
2013-05-01 22:22:00,35.0,34.0,30.37,North,357,15.0,15.0,95,0.00,,,0.31,,2013-05-02 03:22:00,
2013-05-01 22:33:00,35.0,34.0,30.37,NNE,14,19.0,19.0,95,0.00,,,0.20,,2013-05-02 03:33:00,
2013-05-01 22:42:00,35.0,34.0,30.37,NNE,14,19.0,19.0,95,0.00,,,0.20,,2013-05-02 03:42:00,
2013-05-01 22:53:00,35.0,34.0,30.37,North,349,8.0,16.0,95,0.04,,,0.12,,2013-05-02 03:53:00,
2013-05-01 23:03:00,35.0,34.0,30.40,North,357,9.0,13.0,96,0.04,,,0.12,,2013-05-02 04:03:00,
2013-05-01 23:12:00,35.0,34.0,30.40,North,357,9.0,13.0,96,0.04,,,0.12,,2013-05-02 04:12:00,
2013-05-01 23:23:00,35.0,34.0,30.40,North,353,10.0,19.0,96,0.08,,,0.16,,2013-05-02 04:23:00,
2013-05-01 23:33:00,35.0,34.0,30.40,NNW,328,13.0,21.0,96,0.08,,,0.16,,2013-05-02 04:33:00,
2013-05-01 23:42:00,35.0,34.0,30.40,NNW,328,13.0,21.0,96,0.08,,,0.16,,2013-05-02 04:42:00,
2013-05-01 23:52:00,34.0,33.0,30.40,North,3,11.0,12.0,96,0.08,,,0.16,,2013-05-02 04:52:00,